Time;durP1;ratioP1;P1;durP2;ratioP2;P2;SDS_P1;SDS_P2;PMS_P1;PMS_P2;Temp;Humidity;BMP_temperature;BMP_pressure;BME280_temperature;BME280_humidity;BME280_pressure;Samples;Min_cycle;Max_cycle;Signal;HPM_P1;HPM_P2
2022/08/06 00:00:57;;;;;;;;;2.00;2.00;;;;;23.67;31.23;102011.75;5035645;28;47257;-58
2022/08/06 00:03:22;;;;;;;;;2.50;2.50;;;;;23.67;31.18;102013.56;5038149;28;45203;-54
2022/08/06 00:05:47;;;;;;;;;3.00;2.00;;;;;23.65;31.44;102015.41;5049502;28;45298;-57
2022/08/06 00:08:13;;;;;;;;;3.00;2.00;;;;;23.67;31.30;102019.69;5038770;28;45521;-58
2022/08/06 00:10:38;;;;;;;;;2.75;2.75;;;;;23.63;31.42;102018.16;5040213;28;54958;-57
2022/08/06 00:13:04;;;;;;;;;3.50;3.50;;;;;23.60;31.08;102013.84;5037156;28;45318;-57
2022/08/06 00:15:29;;;;;;;;;2.00;2.00;;;;;23.60;31.66;102018.31;5036189;28;45358;-56
2022/08/06 00:17:54;;;;;;;;;4.50;4.50;;;;;23.59;31.42;102019.22;5035483;28;45488;-55
2022/08/06 00:20:20;;;;;;;;;3.00;3.00;;;;;23.58;31.39;102028.09;5036667;28;46373;-56
2022/08/06 00:22:45;;;;;;;;;3.50;3.25;;;;;23.59;31.48;102021.88;5035308;28;45425;-57
2022/08/06 00:25:11;;;;;;;;;2.00;2.00;;;;;23.55;31.47;102020.31;5037212;28;45410;-55
2022/08/06 00:27:37;;;;;;;;;4.75;4.00;;;;;23.54;31.37;102023.88;5037150;28;45600;-55
2022/08/06 00:30:07;;;;;;;;;3.00;3.00;;;;;23.53;31.65;102022.19;5040805;28;46879;-57
2022/08/06 00:32:33;;;;;;;;;3.00;3.00;;;;;23.51;31.21;102013.47;5048913;28;45230;-55
2022/08/06 00:34:59;;;;;;;;;5.25;4.00;;;;;23.50;31.60;102014.41;5060473;28;44771;-55
2022/08/06 00:37:26;;;;;;;;;4.00;3.00;;;;;23.49;31.97;102015.31;5038913;28;45330;-53
2022/08/06 00:39:51;;;;;;;;;3.00;3.00;;;;;23.46;31.72;102014.53;5038282;28;46013;-55
2022/08/06 00:42:16;;;;;;;;;4.00;4.00;;;;;23.46;31.53;102011.91;5038174;28;45370;-55
2022/08/06 00:44:42;;;;;;;;;4.00;3.00;;;;;23.45;31.93;102006.69;5038236;28;45997;-55
2022/08/06 00:47:07;;;;;;;;;3.25;3.25;;;;;23.45;31.83;102014.63;5039088;28;45462;-55
2022/08/06 00:49:33;;;;;;;;;4.00;4.00;;;;;23.45;31.84;102025.22;5038964;28;45906;-54
2022/08/06 00:51:58;;;;;;;;;5.00;4.00;;;;;23.44;31.70;102019.03;5038462;28;45302;-56
2022/08/06 00:54:23;;;;;;;;;6.00;6.00;;;;;23.44;32.13;102023.50;5038887;28;45307;-53
2022/08/06 00:56:49;;;;;;;;;3.75;3.75;;;;;23.42;31.90;102023.59;5038703;28;45602;-56
2022/08/06 00:59:14;;;;;;;;;4.25;4.00;;;;;23.41;32.27;102029.81;5038579;28;48616;-55
2022/08/06 01:01:40;;;;;;;;;4.25;4.25;;;;;23.40;32.18;102027.22;5054088;28;45281;-54
2022/08/06 01:04:05;;;;;;;;;6.00;5.75;;;;;23.39;32.38;102029.00;5053578;28;45220;-59
2022/08/06 01:06:30;;;;;;;;;5.00;4.25;;;;;23.39;32.26;102034.31;5052104;28;45547;-58
2022/08/06 01:08:56;;;;;;;;;5.75;4.00;;;;;23.37;32.30;102030.88;5052658;28;50460;-57
2022/08/06 01:11:21;;;;;;;;;4.25;3.00;;;;;23.35;32.10;102032.72;5038913;28;45453;-58
2022/08/06 01:13:47;;;;;;;;;4.00;4.00;;;;;23.35;32.25;102030.09;5038045;28;45447;-56
2022/08/06 01:16:35;;;;;;;;;2.75;2.00;;;;;23.31;32.49;102024.09;5038451;28;45563;-58
2022/08/06 01:19:17;;;;;;;;;6.25;2.00;;;;;23.29;32.33;102035.69;5038213;28;46999;-55
2022/08/06 01:22:07;;;;;;;;;3.75;2.25;;;;;23.26;32.47;102033.19;5038165;28;45288;-55
2022/08/06 01:25:22;;;;;;;;;1.75;1.75;;;;;23.22;32.55;102037.75;5038483;28;45398;-55
2022/08/06 01:28:04;;;;;;;;;2.00;2.00;;;;;23.22;32.48;102027.19;5014049;28;45409;-56
2022/08/06 01:30:57;;;;;;;;;3.00;2.00;;;;;23.22;32.44;102034.25;5038027;28;46381;-56
2022/08/06 01:33:45;;;;;;;;;2.50;1.50;;;;;23.20;33.12;102036.97;5026967;28;45456;-55
2022/08/06 01:36:18;;;;;;;;;0.50;0.25;;;;;23.19;32.83;102037.03;5038141;28;45440;-55
2022/08/06 01:38:50;;;;;;;;;2.00;1.75;;;;;23.17;32.65;102034.44;5036548;28;45610;-56
2022/08/06 01:41:39;;;;;;;;;3.50;2.00;;;;;23.17;32.68;102032.66;5037958;28;46373;-55
2022/08/06 01:44:10;;;;;;;;;2.00;1.25;;;;;23.14;32.88;102030.16;5038288;28;45331;-57
2022/08/06 01:46:48;;;;;;;;;0.75;0.25;;;;;23.13;32.58;102033.72;5038166;28;45445;-56
2022/08/06 01:49:19;;;;;;;;;1.00;1.00;;;;;23.12;33.08;102039.09;5037861;28;45306;-58
2022/08/06 01:51:48;;;;;;;;;2.25;1.00;;;;;23.09;32.90;102028.66;5038626;28;46358;-58
2022/08/06 01:54:15;;;;;;;;;2.50;1.00;;;;;23.07;32.74;102041.09;5059512;28;45425;-58
2022/08/06 01:56:44;;;;;;;;;2.00;2.00;;;;;23.07;33.21;102041.09;5050584;28;46031;-57
2022/08/06 01:59:15;;;;;;;;;1.50;1.50;;;;;23.07;32.77;102041.09;5037982;28;45215;-57
2022/08/06 02:01:41;;;;;;;;;1.00;1.00;;;;;23.06;33.02;102040.25;5037409;28;45804;-58
2022/08/06 02:04:10;;;;;;;;;1.75;1.75;;;;;23.04;33.03;102042.09;5037454;28;45419;-57
2022/08/06 02:06:40;;;;;;;;;1.00;1.00;;;;;23.01;33.03;102036.94;5037960;28;45299;-55
2022/08/06 02:09:09;;;;;;;;;1.75;1.00;;;;;23.00;33.48;102040.53;5037940;28;45303;-57
2022/08/06 02:11:38;;;;;;;;;2.50;1.00;;;;;22.99;33.11;102038.81;5037736;28;45264;-57
2022/08/06 02:14:06;;;;;;;;;2.25;2.00;;;;;22.98;33.29;102037.97;5038061;28;45345;-57
2022/08/06 02:16:34;;;;;;;;;1.50;1.50;;;;;22.98;33.25;102043.25;5038451;28;45374;-58
2022/08/06 02:19:03;;;;;;;;;1.25;1.25;;;;;22.97;33.21;102040.69;5040708;28;45308;-55
2022/08/06 02:21:31;;;;;;;;;2.00;2.00;;;;;22.97;33.31;102035.41;5047779;28;45338;-58
2022/08/06 02:24:02;;;;;;;;;2.75;1.00;;;;;22.93;33.58;102034.66;5044996;28;45344;-58
2022/08/06 02:26:30;;;;;;;;;1.00;1.00;;;;;22.93;33.39;102033.81;5050263;28;45471;-57
2022/08/06 02:28:59;;;;;;;;;1.00;1.00;;;;;22.96;33.30;102041.63;5042660;28;45860;-58
2022/08/06 02:31:24;;;;;;;;;3.00;1.00;;;;;23.01;33.42;102032.53;5037924;28;46161;-58
2022/08/06 02:33:50;;;;;;;;;3.50;2.00;;;;;23.09;33.38;102040.13;5037139;28;45189;-58
2022/08/06 02:36:24;;;;;;;;;2.00;2.00;;;;;23.15;33.40;102037.16;5037489;28;45414;-58
2022/08/06 02:38:55;;;;;;;;;1.75;1.25;;;;;23.22;33.74;102032.47;5044412;28;44681;-55
2022/08/06 02:41:40;;;;;;;;;2.00;2.00;;;;;23.29;33.53;102047.09;5062833;27;45623;-58
2022/08/06 02:44:14;;;;;;;;;1.00;1.00;;;;;23.35;33.21;102038.03;5038066;28;45397;-57
2022/08/06 02:46:46;;;;;;;;;1.50;1.50;;;;;23.40;33.45;102043.97;5036731;28;45518;-58
2022/08/06 02:49:24;;;;;;;;;1.50;1.50;;;;;23.42;33.51;102030.66;5036905;28;45211;-58
2022/08/06 02:52:00;;;;;;;;;1.25;1.00;;;;;23.47;33.15;102028.66;5035847;28;46552;-57
2022/08/06 02:54:33;;;;;;;;;2.00;2.00;;;;;23.52;33.00;102036.34;5037076;28;45851;-58
2022/08/06 02:57:04;;;;;;;;;3.25;1.50;;;;;23.55;32.86;102036.19;5036789;28;45508;-60
2022/08/06 02:59:35;;;;;;;;;1.00;1.00;;;;;23.58;32.90;102028.09;5037329;28;45457;-56
2022/08/06 03:02:02;;;;;;;;;3.00;2.00;;;;;23.60;33.12;102028.88;5037438;28;48373;-58
2022/08/06 03:04:29;;;;;;;;;3.00;3.00;;;;;23.61;32.98;102030.59;5044836;28;45328;-58
2022/08/06 03:06:58;;;;;;;;;3.75;2.50;;;;;23.63;32.82;102029.59;5058016;28;45222;-57
2022/08/06 03:09:24;;;;;;;;;4.00;2.00;;;;;23.63;32.79;102024.28;5041777;28;45344;-58
2022/08/06 03:11:52;;;;;;;;;2.25;2.25;;;;;23.65;32.82;102024.19;5036582;28;47045;-54
2022/08/06 03:14:19;;;;;;;;;5.25;3.25;;;;;23.68;32.92;102024.06;5036481;28;45306;-56
2022/08/06 03:16:47;;;;;;;;;4.00;3.00;;;;;23.69;32.83;102023.13;5036475;28;45290;-56
2022/08/06 03:19:13;;;;;;;;;3.00;3.00;;;;;23.70;32.81;102019.56;5037117;28;45214;-56
2022/08/06 03:21:41;;;;;;;;;2.50;2.50;;;;;23.72;32.95;102028.28;5036621;28;45458;-56
2022/08/06 03:24:08;;;;;;;;;5.00;1.00;;;;;23.73;32.97;102019.41;5036568;28;45787;-57
2022/08/06 03:26:36;;;;;;;;;5.00;4.00;;;;;23.75;33.13;102019.31;5037053;28;45325;-57
2022/08/06 03:29:02;;;;;;;;;5.75;4.50;;;;;23.75;32.73;102022.84;5037061;28;45494;-56
2022/08/06 03:31:30;;;;;;;;;4.50;3.75;;;;;23.75;32.84;102025.47;5036535;28;46202;-56
2022/08/06 03:33:57;;;;;;;;;5.50;5.50;;;;;23.76;33.08;102019.22;5036124;28;45775;-58
2022/08/06 03:36:23;;;;;;;;;4.00;4.00;;;;;23.76;33.10;102024.53;5036264;28;45379;-58
2022/08/06 03:38:54;;;;;;;;;8.75;6.00;;;;;23.77;32.93;102026.25;5037038;28;45344;-58
2022/08/06 03:41:20;;;;;;;;;7.00;5.00;;;;;23.76;32.83;102027.16;5057956;28;48294;-58
2022/08/06 03:43:46;;;;;;;;;1.00;1.00;;;;;23.78;32.95;102029.75;5037222;28;45361;-58
2022/08/06 03:46:15;;;;;;;;;6.50;4.75;;;;;23.77;32.53;102031.53;5036004;28;45823;-56
2022/08/06 03:48:43;;;;;;;;;6.00;5.00;;;;;23.77;32.64;102023.59;5036888;28;45463;-55
2022/08/06 03:51:16;;;;;;;;;5.00;3.00;;;;;23.79;33.18;102028.81;5044831;28;45470;-57
2022/08/06 03:53:42;;;;;;;;;5.00;4.00;;;;;23.78;32.96;102027.97;5063168;27;44954;-57
2022/08/06 03:56:13;;;;;;;;;6.25;3.75;;;;;23.80;33.03;102024.38;5057306;27;45499;-57
2022/08/06 03:58:40;;;;;;;;;4.50;4.50;;;;;23.81;33.14;102026.09;5036615;28;45409;-57
2022/08/06 04:01:10;;;;;;;;;7.50;4.50;;;;;23.82;32.68;102028.66;5035995;28;45426;-54
2022/08/06 04:03:37;;;;;;;;;3.75;3.75;;;;;23.82;33.02;102019.88;5041217;28;45819;-56
2022/08/06 04:06:03;;;;;;;;;3.00;3.00;;;;;23.84;32.92;102026.78;5043219;28;45373;-58
2022/08/06 04:08:30;;;;;;;;;3.00;3.00;;;;;23.85;32.95;102025.00;5041296;28;45587;-58
2022/08/06 04:10:57;;;;;;;;;3.25;3.25;;;;;23.86;32.61;102030.22;5042605;28;46820;-57
2022/08/06 04:13:24;;;;;;;;;4.00;2.00;;;;;23.86;33.05;102029.38;5062704;27;45139;-56
2022/08/06 04:15:52;;;;;;;;;2.00;2.00;;;;;23.84;32.99;102026.78;5060168;27;44832;-57
2022/08/06 04:18:22;;;;;;;;;2.50;2.00;;;;;23.85;32.99;102039.09;5043198;28;45495;-57
2022/08/06 04:20:50;;;;;;;;;3.75;1.00;;;;;23.85;32.82;102032.97;5045374;28;46649;-57
2022/08/06 04:23:16;;;;;;;;;1.00;1.00;;;;;23.86;32.64;102042.63;5045463;28;45539;-58
2022/08/06 04:25:45;;;;;;;;;2.00;1.75;;;;;23.87;32.68;102039.00;5042344;28;45355;-57
2022/08/06 04:28:13;;;;;;;;;3.00;2.00;;;;;23.87;32.87;102044.31;5042921;28;45288;-57
2022/08/06 04:30:39;;;;;;;;;2.50;2.00;;;;;23.87;32.74;102045.16;5042454;28;46198;-56
2022/08/06 04:33:08;;;;;;;;;3.00;3.00;;;;;23.88;32.75;102043.38;5042906;28;45445;-57
2022/08/06 04:35:37;;;;;;;;;1.00;1.00;;;;;23.87;32.76;102044.31;5043460;28;45366;-57
2022/08/06 04:38:03;;;;;;;;;1.00;1.00;;;;;23.89;32.91;102050.38;5045688;28;45304;-57
2022/08/06 04:40:30;;;;;;;;;2.00;2.00;;;;;23.89;32.69;102053.03;5062132;28;45397;-57
2022/08/06 04:42:56;;;;;;;;;1.75;1.75;;;;;23.89;32.86;102056.56;5053100;28;45751;-56
2022/08/06 04:45:22;;;;;;;;;2.00;2.00;;;;;23.88;32.69;102059.25;5043687;28;45390;-54
2022/08/06 04:47:48;;;;;;;;;1.75;1.25;;;;;23.86;32.61;102058.50;5041832;28;45607;-56
2022/08/06 04:50:14;;;;;;;;;2.50;2.50;;;;;23.87;32.80;102068.13;5042005;28;46207;-55
2022/08/06 04:52:39;;;;;;;;;1.00;1.00;;;;;23.84;32.13;102069.16;5041667;28;45230;-55
2022/08/06 04:55:05;;;;;;;;;2.25;1.75;;;;;23.85;32.55;102075.31;5042411;28;45368;-56
2022/08/06 04:57:32;;;;;;;;;1.00;1.00;;;;;23.83;32.17;102075.38;5042931;28;45208;-57
2022/08/06 04:59:57;;;;;;;;;0.00;0.00;;;;;23.85;32.96;102085.91;5047256;28;45188;-55
2022/08/06 05:02:23;;;;;;;;;1.25;1.00;;;;;23.85;32.67;102075.31;5058861;28;45269;-56
2022/08/06 05:04:55;;;;;;;;;1.00;1.00;;;;;23.84;32.07;102079.72;5050648;28;45219;-52
2022/08/06 05:07:28;;;;;;;;;1.00;1.00;;;;;23.86;32.49;102082.31;5067913;28;44828;-55
2022/08/06 05:09:55;;;;;;;;;1.25;1.00;;;;;23.87;32.58;102084.00;5046502;28;46317;-55
2022/08/06 05:12:38;;;;;;;;;1.25;1.25;;;;;23.88;32.63;102085.72;5041872;28;45785;-56
2022/08/06 05:15:16;;;;;;;;;3.00;1.00;;;;;23.88;32.79;102089.25;5038687;28;45310;-55
2022/08/06 05:17:48;;;;;;;;;3.00;1.50;;;;;23.89;32.67;102082.16;5038610;28;45218;-55
2022/08/06 05:20:19;;;;;;;;;1.25;1.25;;;;;23.90;32.16;102089.16;5038716;28;46274;-55
2022/08/06 05:22:49;;;;;;;;;2.00;1.50;;;;;23.89;32.30;102079.50;5038383;28;45451;-55
2022/08/06 05:25:15;;;;;;;;;3.00;2.00;;;;;23.89;32.46;102088.31;5038466;28;45313;-56
2022/08/06 05:27:41;;;;;;;;;1.00;1.00;;;;;23.86;32.58;102088.47;5038476;28;45338;-55
2022/08/06 05:30:08;;;;;;;;;1.25;1.25;;;;;23.89;32.67;102092.75;5037720;28;47299;-54
2022/08/06 05:32:43;;;;;;;;;2.00;2.00;;;;;23.87;32.51;102094.59;5047683;28;45461;-56
2022/08/06 05:35:08;;;;;;;;;2.75;1.00;;;;;23.86;32.25;102103.50;5043747;28;45303;-57
2022/08/06 05:37:34;;;;;;;;;3.50;1.00;;;;;23.84;31.94;102095.63;5039034;28;45334;-57
2022/08/06 05:39:59;;;;;;;;;1.00;1.00;;;;;23.81;32.35;102094.91;5037918;28;46115;-56
2022/08/06 05:42:24;;;;;;;;;1.50;1.50;;;;;23.83;32.30;102101.00;5038284;28;45302;-57
2022/08/06 05:44:50;;;;;;;;;1.00;1.00;;;;;23.82;32.19;102102.78;5038325;28;45394;-57
2022/08/06 05:47:20;;;;;;;;;3.00;1.25;;;;;23.81;32.45;102100.22;5058027;28;45526;-53
2022/08/06 05:49:52;;;;;;;;;1.25;1.00;;;;;23.81;32.15;102108.16;5044729;28;47073;-55
2022/08/06 05:52:28;;;;;;;;;1.00;1.00;;;;;23.78;32.26;102102.06;5038336;28;45306;-55
2022/08/06 05:55:01;;;;;;;;;1.00;1.00;;;;;23.82;32.43;102104.59;5037726;28;45442;-56
2022/08/06 05:57:45;;;;;;;;;1.75;1.75;;;;;23.82;32.33;102110.72;5038213;28;45741;-57
2022/08/06 06:00:14;;;;;;;;;1.50;1.25;;;;;23.83;32.50;102108.94;5037575;28;46554;-54
2022/08/06 06:02:45;;;;;;;;;1.00;1.00;;;;;23.82;32.17;102105.44;5038406;28;45302;-56
2022/08/06 06:05:12;;;;;;;;;1.00;1.00;;;;;23.82;32.31;102112.53;5063682;27;44747;-54
2022/08/06 06:07:38;;;;;;;;;2.00;1.75;;;;;23.82;32.06;102118.66;5061701;28;44961;-55
2022/08/06 06:10:05;;;;;;;;;3.50;3.00;;;;;23.82;32.24;102109.88;5038331;28;47272;-55
2022/08/06 06:12:32;;;;;;;;;1.00;1.00;;;;;23.81;32.46;102116.09;5037668;28;45338;-56
2022/08/06 06:14:59;;;;;;;;;2.75;1.50;;;;;23.79;32.59;102118.84;5036846;28;45390;-56
2022/08/06 06:17:45;;;;;;;;;2.75;1.00;;;;;23.78;32.40;102110.03;5037284;28;45317;-56
2022/08/06 06:20:25;;;;;;;;;1.50;1.50;;;;;23.80;32.26;102114.38;5050193;28;47339;-55
2022/08/06 06:23:15;;;;;;;;;2.75;1.00;;;;;23.81;32.43;102116.09;5043573;28;45721;-54
2022/08/06 06:25:48;;;;;;;;;1.00;1.00;;;;;23.81;32.46;102111.69;5035514;28;45416;-55
2022/08/06 06:28:35;;;;;;;;;3.00;1.25;;;;;23.82;32.27;102115.16;5037507;28;45322;-55
2022/08/06 06:31:42;;;;;;;;;2.50;1.75;;;;;23.80;32.24;102103.78;5037011;28;45978;-54
2022/08/06 06:34:38;;;;;;;;;1.25;1.25;;;;;23.78;32.35;102112.66;5020698;28;45463;-55
2022/08/06 06:37:14;;;;;;;;;1.00;1.00;;;;;23.77;32.47;102108.31;5037372;28;45271;-55
2022/08/06 06:39:48;;;;;;;;;3.00;1.25;;;;;23.78;32.23;102115.31;5037198;28;45334;-54
2022/08/06 06:42:23;;;;;;;;;1.25;1.00;;;;;23.77;32.16;102104.81;5038701;28;46927;-54
2022/08/06 06:45:09;;;;;;;;;4.00;1.00;;;;;23.81;32.11;102106.38;5064256;27;45056;-56
2022/08/06 06:47:56;;;;;;;;;3.75;2.00;;;;;23.80;32.51;102119.69;5051294;28;45461;-55
2022/08/06 06:50:25;;;;;;;;;1.75;1.75;;;;;23.80;31.97;102119.69;5059653;28;44736;-56
2022/08/06 06:52:52;;;;;;;;;2.00;2.00;;;;;23.79;32.12;102116.19;5043438;28;45385;-56
2022/08/06 06:55:35;;;;;;;;;1.00;1.00;;;;;23.80;32.27;102122.31;5048935;28;45240;-54
2022/08/06 06:58:08;;;;;;;;;2.00;2.00;;;;;23.77;31.90;102110.94;5050989;28;45375;-56
2022/08/06 07:00:34;;;;;;;;;1.00;1.00;;;;;23.78;31.91;102115.31;5038019;28;45548;-56
2022/08/06 07:03:03;;;;;;;;;1.00;1.00;;;;;23.81;32.33;102126.69;5036724;28;46114;-56
2022/08/06 07:05:30;;;;;;;;;1.00;0.75;;;;;23.81;32.47;102122.28;5052663;28;45317;-55
2022/08/06 07:07:57;;;;;;;;;1.25;1.00;;;;;23.81;31.96;102116.09;5061657;27;45662;-61
2022/08/06 07:10:25;;;;;;;;;2.50;1.00;;;;;23.82;32.07;102121.31;5035580;28;45219;-56
2022/08/06 07:12:51;;;;;;;;;1.50;1.00;;;;;23.85;31.75;102123.81;5035744;28;46256;-55
2022/08/06 07:15:21;;;;;;;;;1.00;1.00;;;;;23.85;31.67;102128.25;5035929;28;45757;-56
2022/08/06 07:17:49;;;;;;;;;0.00;0.00;;;;;23.86;32.13;102133.47;5046742;28;45421;-55
2022/08/06 07:20:19;;;;;;;;;1.00;1.00;;;;;23.89;31.29;102133.34;5058481;28;44881;-56
2022/08/06 07:22:46;;;;;;;;;0.75;0.75;;;;;23.89;31.92;102146.56;5036103;28;46381;-56
2022/08/06 07:25:14;;;;;;;;;3.25;1.00;;;;;23.89;31.85;102151.88;5035789;28;45622;-56
2022/08/06 07:27:44;;;;;;;;;1.00;1.00;;;;;23.90;31.22;102143.00;5035855;28;45369;-56
2022/08/06 07:30:10;;;;;;;;;1.00;1.00;;;;;23.90;31.64;102147.41;5036567;28;45519;-56
2022/08/06 07:32:37;;;;;;;;;1.75;1.00;;;;;23.92;31.53;102145.56;5036106;28;46396;-55
2022/08/06 07:35:05;;;;;;;;;0.75;0.75;;;;;23.90;31.00;102142.13;5036522;28;45691;-56
2022/08/06 07:37:32;;;;;;;;;0.75;0.75;;;;;23.93;31.34;102152.56;5036414;28;45372;-56
2022/08/06 07:40:00;;;;;;;;;1.25;0.00;;;;;23.92;31.28;102145.56;5049710;28;45453;-56
2022/08/06 07:42:28;;;;;;;;;0.00;0.00;;;;;23.95;31.08;102150.75;5044154;28;45249;-54
2022/08/06 07:45:00;;;;;;;;;4.25;2.00;;;;;23.98;31.32;102153.22;5035405;28;45503;-58
2022/08/06 07:47:32;;;;;;;;;4.50;2.00;;;;;24.00;31.42;102143.41;5035996;28;45395;-55
2022/08/06 07:49:59;;;;;;;;;5.50;0.25;;;;;24.01;31.06;102150.41;5036044;28;45453;-58
2022/08/06 07:52:25;;;;;;;;;1.25;1.25;;;;;24.02;30.87;102148.66;5035541;28;46393;-55
2022/08/06 07:54:53;;;;;;;;;1.00;0.00;;;;;24.02;30.55;102146.84;5035784;28;45717;-57
2022/08/06 07:57:19;;;;;;;;;0.50;0.50;;;;;24.06;30.83;102151.06;5035800;28;45453;-57
2022/08/06 07:59:47;;;;;;;;;0.50;0.50;;;;;24.06;30.65;102152.84;5035668;28;45458;-55
2022/08/06 08:02:13;;;;;;;;;0.75;0.75;;;;;24.08;30.61;102158.94;5035631;28;46195;-56
2022/08/06 08:07:24;;;;;;;;;0.25;0.00;;;;;24.12;30.17;102152.56;5043198;28;45377;-57
2022/08/06 08:09:50;;;;;;;;;0.00;0.00;;;;;24.13;30.50;102148.09;5054452;28;44825;-55
2022/08/06 08:12:17;;;;;;;;;1.00;1.00;;;;;24.13;30.01;102148.97;5060277;28;45683;-56
2022/08/06 08:14:44;;;;;;;;;0.25;0.25;;;;;24.14;30.30;102149.81;5064031;28;45026;-56
2022/08/06 08:17:10;;;;;;;;;0.00;0.00;;;;;24.13;30.18;102156.91;5061271;28;44776;-56
2022/08/06 08:19:35;;;;;;;;;0.25;0.25;;;;;24.14;30.26;102155.13;5063235;28;44908;-56
2022/08/06 08:22:20;;;;;;;;;0.00;0.00;;;;;24.15;29.80;102156.84;5060790;28;45941;-55
2022/08/06 08:24:47;;;;;;;;;1.00;1.00;;;;;24.14;30.19;102163.94;5055133;28;45172;-54
2022/08/06 08:27:14;;;;;;;;;1.00;1.00;;;;;24.16;29.92;102158.53;5058348;28;44714;-54
2022/08/06 08:29:41;;;;;;;;;0.00;0.00;;;;;24.19;30.05;102166.34;5061879;28;44794;-55
2022/08/06 08:32:08;;;;;;;;;2.00;0.00;;;;;24.17;29.44;102168.22;5046539;28;46198;-55
2022/08/06 08:34:37;;;;;;;;;0.00;0.00;;;;;24.15;29.73;102147.06;5042843;28;45357;-56
2022/08/06 08:37:03;;;;;;;;;0.25;0.25;;;;;24.18;29.84;102156.69;5052553;28;45315;-56
2022/08/06 08:39:28;;;;;;;;;0.25;0.00;;;;;24.18;29.94;102156.69;5036453;28;45615;-55
2022/08/06 08:42:17;;;;;;;;;1.00;0.25;;;;;24.17;29.90;102144.38;5038078;28;54262;-55
2022/08/06 08:44:42;;;;;;;;;2.00;0.00;;;;;24.18;29.59;102143.44;5038294;28;45235;-56
2022/08/06 08:47:12;;;;;;;;;0.00;0.00;;;;;24.19;29.29;102147.81;5035580;28;45258;-56
2022/08/06 08:49:51;;;;;;;;;1.25;0.25;;;;;24.20;29.41;102138.91;5036694;28;45401;-54
2022/08/06 08:52:23;;;;;;;;;2.25;0.25;;;;;24.22;29.21;102140.56;5038622;28;47083;-58
2022/08/06 08:54:51;;;;;;;;;0.50;0.00;;;;;24.23;29.48;102141.41;5038364;28;45247;-56
2022/08/06 08:57:18;;;;;;;;;0.00;0.00;;;;;24.23;29.31;102139.63;5039221;28;45353;-55
2022/08/06 08:59:44;;;;;;;;;1.75;0.75;;;;;24.23;29.76;102142.28;5056329;28;45278;-56
2022/08/06 09:02:12;;;;;;;;;1.00;1.00;;;;;24.26;29.51;102135.94;5059806;28;46040;-56
2022/08/06 09:04:38;;;;;;;;;1.00;1.00;;;;;24.29;29.33;102137.59;5044650;28;45342;-55
2022/08/06 09:07:04;;;;;;;;;0.75;0.75;;;;;24.29;29.23;102142.88;5054311;28;45345;-56
2022/08/06 09:09:31;;;;;;;;;1.00;1.00;;;;;24.29;29.57;102141.09;5057132;28;45559;-56
2022/08/06 09:11:57;;;;;;;;;1.00;1.00;;;;;24.31;29.35;102141.84;5045964;28;45228;-56
2022/08/06 09:14:22;;;;;;;;;0.50;0.00;;;;;24.30;28.76;102142.81;5042598;28;45223;-56
2022/08/06 09:16:49;;;;;;;;;1.75;0.25;;;;;24.32;29.17;102145.38;5040897;28;45304;-54
2022/08/06 09:19:15;;;;;;;;;0.00;0.00;;;;;24.33;29.31;102150.59;5038937;28;45295;-56
2022/08/06 09:21:41;;;;;;;;;1.25;1.00;;;;;24.32;28.61;102143.56;5037660;28;46454;-55
2022/08/06 09:24:06;;;;;;;;;0.00;0.00;;;;;24.34;28.91;102135.56;5037993;28;45441;-55
2022/08/06 09:26:33;;;;;;;;;0.00;0.00;;;;;24.34;28.47;102154.97;5038810;28;45326;-54
2022/08/06 09:28:59;;;;;;;;;0.00;0.00;;;;;24.35;28.49;102148.72;5038418;28;45619;-54
2022/08/06 09:31:24;;;;;;;;;2.00;0.00;;;;;24.35;28.42;102154.03;5048754;28;45464;-56
2022/08/06 09:33:54;;;;;;;;;0.75;0.50;;;;;24.36;28.03;102155.75;5064171;28;44710;-56
2022/08/06 09:36:19;;;;;;;;;0.25;0.25;;;;;24.35;27.74;102156.69;5054406;28;45394;-57
2022/08/06 09:38:58;;;;;;;;;0.00;0.00;;;;;24.36;27.95;102150.44;5047042;28;45441;-57
2022/08/06 09:41:26;;;;;;;;;0.00;0.00;;;;;24.36;28.10;102147.78;5047323;28;45405;-56
2022/08/06 09:43:54;;;;;;;;;1.00;1.00;;;;;24.38;27.78;102150.34;5057860;28;45208;-56
2022/08/06 09:46:43;;;;;;;;;0.00;0.00;;;;;24.39;27.94;102160.91;5038117;28;45411;-56
2022/08/06 09:49:10;;;;;;;;;0.75;0.00;;;;;24.40;27.51;102148.50;5030451;28;45588;-56
2022/08/06 09:51:37;;;;;;;;;1.50;0.00;;;;;24.42;28.25;102148.44;5037507;28;45453;-56
2022/08/06 09:54:05;;;;;;;;;0.00;0.00;;;;;24.43;27.77;102152.75;5037046;28;45271;-57
2022/08/06 09:56:30;;;;;;;;;0.00;0.00;;;;;24.42;28.22;102143.13;5037350;28;45882;-56
2022/08/06 09:59:04;;;;;;;;;0.00;0.00;;;;;24.44;27.58;102143.88;5036925;28;45308;-57
2022/08/06 10:01:44;;;;;;;;;1.50;0.00;;;;;24.44;27.78;102143.88;5036349;28;46453;-57
2022/08/06 10:04:13;;;;;;;;;0.50;0.00;;;;;24.48;27.88;102150.75;5037202;28;45638;-56
2022/08/06 10:07:01;;;;;;;;;4.75;1.25;;;;;24.51;27.91;102147.94;5037284;28;45379;-57
2022/08/06 10:09:27;;;;;;;;;3.00;1.00;;;;;24.52;27.42;102152.31;5038600;28;45554;-56
2022/08/06 10:11:53;;;;;;;;;1.00;1.00;;;;;24.56;27.84;102156.50;5037102;28;45355;-57
2022/08/06 10:14:30;;;;;;;;;0.00;0.00;;;;;24.59;27.30;102150.19;5037154;28;45676;-54
2022/08/06 10:17:07;;;;;;;;;0.00;0.00;;;;;24.61;27.02;102153.63;5037157;28;45347;-57
2022/08/06 10:19:32;;;;;;;;;1.00;0.50;;;;;24.60;27.04;102142.16;5052112;28;45214;-54
2022/08/06 10:22:09;;;;;;;;;1.00;1.00;;;;;24.64;27.39;102142.84;5042205;28;45998;-55
2022/08/06 10:24:41;;;;;;;;;0.50;0.50;;;;;24.64;26.90;102138.41;5037202;28;45473;-54
2022/08/06 10:27:10;;;;;;;;;1.00;1.00;;;;;24.67;27.08;102140.91;5037098;28;45283;-55
2022/08/06 10:29:41;;;;;;;;;2.25;0.25;;;;;24.69;26.76;102135.56;5037442;28;45781;-53
2022/08/06 10:32:18;;;;;;;;;3.25;0.75;;;;;24.70;27.36;102135.47;5036734;28;45206;-55
2022/08/06 10:34:48;;;;;;;;;0.00;0.00;;;;;24.72;26.64;102134.53;5036535;28;45609;-55
2022/08/06 10:37:16;;;;;;;;;0.50;0.00;;;;;24.73;26.50;102130.97;5037296;28;45384;-56
2022/08/06 10:39:46;;;;;;;;;1.75;0.00;;;;;24.74;27.11;102132.66;5036745;28;45297;-56
2022/08/06 10:42:12;;;;;;;;;1.00;1.00;;;;;24.74;27.15;102124.72;5036402;28;46444;-57
2022/08/06 10:44:38;;;;;;;;;0.00;0.00;;;;;24.74;26.56;102122.91;5035953;28;45845;-54
2022/08/06 10:47:05;;;;;;;;;0.75;0.75;;;;;24.77;26.83;102130.72;5037128;28;45350;-55
2022/08/06 10:49:32;;;;;;;;;0.00;0.00;;;;;24.79;26.33;102122.66;5037032;28;45346;-56
2022/08/06 10:51:58;;;;;;;;;1.00;1.00;;;;;24.80;26.55;102121.72;5036222;28;45315;-55
2022/08/06 10:54:25;;;;;;;;;1.00;1.00;;;;;24.81;26.66;102113.69;5036527;28;45381;-58
2022/08/06 10:56:50;;;;;;;;;0.25;0.25;;;;;24.83;27.07;102110.97;5036148;28;45453;-57
2022/08/06 10:59:17;;;;;;;;;1.00;1.00;;;;;24.85;26.94;102109.09;5036944;28;45792;-58
2022/08/06 11:02:10;;;;;;;;;1.25;1.00;;;;;24.87;26.86;102112.50;5036454;28;47015;-59
2022/08/06 11:05:02;;;;;;;;;1.50;1.25;;;;;24.89;26.54;102115.91;5037010;28;45735;-54
2022/08/06 11:07:46;;;;;;;;;1.00;1.00;;;;;24.90;27.00;102109.69;5057888;28;45243;-55
2022/08/06 11:10:45;;;;;;;;;1.25;1.00;;;;;24.91;26.91;102098.13;5053509;28;45163;-54
2022/08/06 11:13:30;;;;;;;;;1.50;1.00;;;;;24.90;27.10;102101.72;5036951;28;46221;-56
2022/08/06 11:15:56;;;;;;;;;1.00;1.00;;;;;24.91;26.88;102102.59;5064202;28;44991;-56
2022/08/06 11:18:22;;;;;;;;;1.50;1.00;;;;;24.92;26.89;102101.63;5041681;27;45738;-56
2022/08/06 11:20:49;;;;;;;;;1.75;1.00;;;;;24.94;27.03;102099.75;5036364;28;45324;-57
2022/08/06 11:23:15;;;;;;;;;4.50;1.00;;;;;24.94;26.67;102100.63;5035605;28;47225;-58
2022/08/06 11:25:43;;;;;;;;;2.33;1.00;;;;;24.95;26.59;102099.69;5037929;28;45278;-57
2022/08/06 11:28:13;;;;;;;;;1.00;1.00;;;;;24.96;26.55;102098.75;5052349;28;45232;-58
2022/08/06 11:30:40;;;;;;;;;1.00;1.00;;;;;24.97;26.23;102092.47;5051873;28;45416;-57
2022/08/06 11:33:05;;;;;;;;;1.00;1.00;;;;;24.98;26.42;102086.25;5036027;28;45279;-56
2022/08/06 11:35:34;;;;;;;;;1.00;1.00;;;;;25.00;26.71;102084.38;5036332;28;45288;-56
2022/08/06 11:38:05;;;;;;;;;2.00;1.25;;;;;25.00;26.60;102076.41;5035174;28;45493;-57
2022/08/06 11:41:00;;;;;;;;;1.25;1.25;;;;;25.03;26.40;102074.53;5036899;28;45417;-56